Time;durP1;ratioP1;P1;durP2;ratioP2;P2;SDS_P1;SDS_P2;PMS_P1;PMS_P2;Temp;Humidity;BMP_temperature;BMP_pressure;BME280_temperature;BME280_humidity;BME280_pressure;Samples;Min_cycle;Max_cycle;Signal;HPM_P1;HPM_P2
2022/12/06 00:01:18;;;;;;;13.27;5.85;;;;;;;8.31;68.36;102275.13;5056276;28;20057;-45
2022/12/06 00:03:46;;;;;;;11.18;5.00;;;;;;;8.27;68.41;102273.19;5055805;28;20036;-45
2022/12/06 00:06:18;;;;;;;12.43;5.30;;;;;;;8.21;69.14;102281.59;5058191;28;20028;-43
2022/12/06 00:08:44;;;;;;;11.30;5.38;;;;;;;8.22;68.91;102269.50;5057476;28;20389;-43
2022/12/06 00:11:19;;;;;;;11.10;5.00;;;;;;;8.24;68.36;102276.53;5056753;28;20025;-43
2022/12/06 00:13:45;;;;;;;10.57;5.30;;;;;;;8.21;68.43;102275.50;5054274;28;20493;-42
2022/12/06 00:16:15;;;;;;;11.20;5.22;;;;;;;8.15;68.66;102277.03;5053167;28;20068;-44
2022/12/06 00:18:42;;;;;;;10.55;5.25;;;;;;;8.05;68.94;102277.41;5057195;28;20029;-42
2022/12/06 00:21:10;;;;;;;9.48;4.68;;;;;;;8.13;68.69;102276.03;5056250;28;20110;-42
2022/12/06 00:23:47;;;;;;;11.85;5.03;;;;;;;8.14;68.32;102274.34;5056464;28;20020;-44
2022/12/06 00:26:13;;;;;;;9.93;5.00;;;;;;;8.12;68.35;102276.88;5056591;28;20021;-43
2022/12/06 00:28:39;;;;;;;10.00;4.85;;;;;;;8.09;68.36;102271.53;5056544;28;20351;-44
2022/12/06 00:31:07;;;;;;;9.63;5.25;;;;;;;8.05;68.44;102272.19;5055955;28;20017;-44
2022/12/06 00:33:34;;;;;;;12.07;5.00;;;;;;;8.07;68.09;102264.50;5053447;28;20374;-44
2022/12/06 00:36:03;;;;;;;8.90;4.90;;;;;;;7.97;68.63;102262.31;5053270;28;20423;-45
2022/12/06 00:38:29;;;;;;;11.73;5.13;;;;;;;7.95;68.65;102270.00;5052613;28;20017;-42
2022/12/06 00:41:09;;;;;;;10.43;4.63;;;;;;;8.02;68.36;102268.59;5052186;28;20029;-44
2022/12/06 00:43:35;;;;;;;9.57;4.28;;;;;;;8.00;68.30;102268.50;5053050;28;20048;-43
2022/12/06 00:46:02;;;;;;;12.68;4.53;;;;;;;8.02;68.40;102271.19;5053583;28;20116;-42
2022/12/06 00:48:27;;;;;;;10.57;4.80;;;;;;;8.03;68.75;102266.06;5054639;28;20021;-43
2022/12/06 00:50:53;;;;;;;8.93;4.30;;;;;;;8.04;68.44;102265.25;5055188;28;20513;-43
2022/12/06 00:53:19;;;;;;;9.63;4.43;;;;;;;8.01;68.37;102267.69;5053988;28;20031;-41
2022/12/06 00:55:44;;;;;;;11.65;4.28;;;;;;;7.96;68.26;102270.91;5052115;28;20036;-44
2022/12/06 00:58:11;;;;;;;10.52;4.30;;;;;;;7.93;68.01;102265.59;5052943;28;20533;-42
2022/12/06 01:00:36;;;;;;;8.93;3.95;;;;;;;7.88;68.04;102272.25;5052160;28;20033;-46
2022/12/06 01:03:02;;;;;;;9.70;4.13;;;;;;;7.83;68.38;102272.03;5052230;28;20033;-44
2022/12/06 01:05:28;;;;;;;9.32;4.03;;;;;;;7.84;68.45;102263.44;5050767;28;20083;-42
2022/12/06 01:07:54;;;;;;;10.88;4.25;;;;;;;7.89;68.89;102269.72;5052068;28;20107;-43
2022/12/06 01:10:19;;;;;;;7.65;3.65;;;;;;;7.94;69.20;102259.53;5052647;28;20393;-42
2022/12/06 01:12:44;;;;;;;12.05;4.30;;;;;;;8.02;69.88;102268.59;5052847;28;20025;-42
2022/12/06 01:15:10;;;;;;;14.27;3.95;;;;;;;8.12;69.51;102261.28;5051003;28;20098;-42
2022/12/06 01:17:36;;;;;;;8.50;4.00;;;;;;;8.22;69.27;102260.00;5051790;28;20032;-42
2022/12/06 01:20:01;;;;;;;13.20;4.30;;;;;;;8.30;68.82;102252.53;5050628;28;20397;-42
2022/12/06 01:22:27;;;;;;;10.20;3.60;;;;;;;8.26;68.90;102251.50;5051822;28;20024;-39
2022/12/06 01:24:52;;;;;;;10.20;4.10;;;;;;;8.15;69.02;102251.03;5051736;28;20048;-43
2022/12/06 01:27:18;;;;;;;10.82;4.00;;;;;;;8.31;68.29;102255.22;5052240;28;20100;-42
2022/12/06 01:29:43;;;;;;;10.48;3.70;;;;;;;8.26;68.84;102251.50;5052350;28;20054;-43
2022/12/06 01:32:08;;;;;;;11.25;3.92;;;;;;;8.27;68.54;102255.00;5053258;28;20141;-42
2022/12/06 01:34:34;;;;;;;10.40;3.38;;;;;;;8.35;68.79;102258.88;5055198;28;20044;-43
2022/12/06 01:36:59;;;;;;;9.48;3.40;;;;;;;8.43;68.93;102252.28;5055227;28;20017;-43
2022/12/06 01:39:24;;;;;;;8.27;3.60;;;;;;;8.43;68.89;102253.19;5054552;28;20123;-41
2022/12/06 01:41:50;;;;;;;8.23;3.30;;;;;;;8.42;68.96;102254.00;5054260;28;20100;-42
2022/12/06 01:44:44;;;;;;;9.55;3.17;;;;;;;8.55;68.58;102258.91;5054947;28;20021;-42
2022/12/06 01:47:28;;;;;;;7.78;3.13;;;;;;;8.61;68.88;102254.78;5054137;28;20033;-44
2022/12/06 01:50:10;;;;;;;9.60;3.08;;;;;;;8.63;68.47;102250.56;5053822;28;20035;-42
2022/12/06 01:52:43;;;;;;;11.23;3.10;;;;;;;8.68;68.78;102252.53;5052338;28;20068;-43
2022/12/06 01:55:09;;;;;;;8.57;3.00;;;;;;;8.79;68.30;102255.56;5051952;28;20116;-43
2022/12/06 01:57:35;;;;;;;7.03;2.78;;;;;;;8.83;68.42;102250.59;5050973;28;20054;-42
2022/12/06 02:00:00;;;;;;;7.15;2.65;;;;;;;8.78;68.23;102254.69;5051544;28;20132;-46
2022/12/06 02:02:26;;;;;;;4.60;2.30;;;;;;;8.84;68.35;102247.16;5051722;28;20024;-45
2022/12/06 02:04:52;;;;;;;5.10;2.60;;;;;;;8.91;68.37;102254.38;5051426;28;20025;-42
2022/12/06 02:07:19;;;;;;;5.88;2.75;;;;;;;8.96;68.14;102250.25;5052540;28;20021;-43
2022/12/06 02:09:45;;;;;;;7.55;2.55;;;;;;;9.04;67.79;102247.97;5054007;28;20079;-42
2022/12/06 02:12:13;;;;;;;5.05;2.25;;;;;;;9.08;67.83;102251.63;5053198;28;20465;-44
2022/12/06 02:14:39;;;;;;;4.60;2.20;;;;;;;9.17;67.62;102249.38;5051523;28;20303;-42
2022/12/06 02:17:10;;;;;;;5.95;2.40;;;;;;;9.11;67.96;102252.63;5052186;28;20025;-42
2022/12/06 02:19:55;;;;;;;5.45;1.92;;;;;;;9.18;67.61;102248.56;5052705;28;20470;-42
2022/12/06 02:22:39;;;;;;;5.93;2.03;;;;;;;9.20;67.23;102250.41;5050987;28;20029;-42
2022/12/06 02:25:10;;;;;;;7.38;2.10;;;;;;;9.24;67.46;102249.69;5051010;28;20025;-43
2022/12/06 02:28:21;;;;;;;11.68;2.40;;;;;;;9.14;67.29;102238.88;5053417;28;20031;-40
2022/12/06 02:31:03;;;;;;;6.70;2.42;;;;;;;9.07;67.36;102245.53;5053175;28;20524;-41
2022/12/06 02:33:45;;;;;;;7.75;2.40;;;;;;;9.25;67.16;102240.19;5052902;28;20052;-43
2022/12/06 02:36:27;;;;;;;5.85;2.00;;;;;;;9.28;67.36;102248.09;5052614;28;20033;-43
2022/12/06 02:38:58;;;;;;;5.93;2.10;;;;;;;9.18;67.16;102238.16;5052647;28;20032;-42
2022/12/06 02:41:46;;;;;;;7.60;2.22;;;;;;;9.12;67.07;102237.91;5051162;28;20079;-40
2022/12/06 02:44:19;;;;;;;7.55;2.30;;;;;;;9.14;67.41;102244.06;5050367;28;20028;-42
2022/12/06 02:46:47;;;;;;;6.10;2.30;;;;;;;9.17;67.50;102242.47;5050053;28;20102;-40
2022/12/06 02:49:13;;;;;;;4.70;2.25;;;;;;;9.09;67.42;102241.25;5050651;28;20063;-42
2022/12/06 02:51:40;;;;;;;8.65;2.08;;;;;;;9.00;67.34;102243.50;5051729;28;20052;-43
2022/12/06 02:54:09;;;;;;;7.32;2.17;;;;;;;9.28;67.19;102240.28;5051840;28;20025;-43
2022/12/06 02:56:34;;;;;;;5.50;2.35;;;;;;;9.28;66.70;102243.78;5052860;28;20135;-43
2022/12/06 02:59:00;;;;;;;7.22;2.00;;;;;;;9.20;66.54;102239.13;5053071;28;20481;-44
2022/12/06 03:01:29;;;;;;;3.78;1.65;;;;;;;9.22;66.71;102235.72;5053091;28;20074;-43
2022/12/06 03:04:13;;;;;;;5.05;2.00;;;;;;;9.20;66.65;102240.00;5052956;28;20044;-39
2022/12/06 03:06:44;;;;;;;5.70;1.85;;;;;;;9.23;66.95;102234.00;5052087;28;20036;-44
2022/12/06 03:09:22;;;;;;;5.63;1.77;;;;;;;9.30;66.23;102236.03;5050910;28;20056;-43
2022/12/06 03:12:28;;;;;;;9.23;1.90;;;;;;;9.30;66.23;102239.53;5050401;28;20025;-43
2022/12/06 03:15:05;;;;;;;4.32;1.70;;;;;;;9.37;66.25;102235.47;5050338;28;20384;-41
2022/12/06 03:17:35;;;;;;;6.15;1.80;;;;;;;9.35;66.28;102232.78;5083822;22;20052;-44
2022/12/06 03:20:20;;;;;;;4.82;1.92;;;;;;;9.22;66.89;102235.72;5073300;28;20480;-44
2022/12/06 03:22:51;;;;;;;5.10;1.70;;;;;;;9.34;66.22;102236.22;5073709;28;20473;-43
2022/12/06 03:25:16;;;;;;;6.53;1.90;;;;;;;9.47;66.16;102236.72;5073772;28;20510;-47
2022/12/06 03:27:44;;;;;;;5.03;1.88;;;;;;;9.27;66.30;102238.53;5073648;28;20021;-43
2022/12/06 03:30:12;;;;;;;4.20;1.58;;;;;;;9.31;66.19;102237.81;5073424;28;20051;-42
2022/12/06 03:32:42;;;;;;;4.82;1.83;;;;;;;9.27;66.04;102235.94;5055544;28;20032;-42
2022/12/06 03:35:13;;;;;;;5.82;1.80;;;;;;;9.18;65.53;102233.84;5073816;28;20081;-41
2022/12/06 03:37:42;;;;;;;6.97;1.80;;;;;;;9.15;65.64;102232.84;5073346;28;20461;-44
2022/12/06 03:40:20;;;;;;;4.47;1.80;;;;;;;9.10;65.60;102234.34;5073475;28;20028;-45
2022/12/06 03:42:47;;;;;;;4.03;1.58;;;;;;;8.94;65.76;102238.03;5073653;28;20378;-47
2022/12/06 03:45:13;;;;;;;4.35;1.90;;;;;;;8.88;65.66;102232.56;5073669;28;20020;-42
2022/12/06 03:47:59;;;;;;;6.22;2.20;;;;;;;8.81;66.07;102238.34;5072820;28;20032;-42
2022/12/06 03:50:49;;;;;;;5.05;1.80;;;;;;;8.75;65.65;102235.47;5072610;28;20028;-43
2022/12/06 03:53:16;;;;;;;4.80;1.85;;;;;;;8.63;65.52;102230.66;5073140;28;20029;-46
2022/12/06 03:55:41;;;;;;;7.68;1.77;;;;;;;8.51;65.56;102232.72;5073220;28;20074;-42
2022/12/06 03:58:07;;;;;;;4.60;1.58;;;;;;;8.45;65.71;102228.16;5074386;28;20028;-45
2022/12/06 04:00:32;;;;;;;3.80;1.80;;;;;;;8.25;66.38;102231.53;5074164;28;20039;-43
2022/12/06 04:02:57;;;;;;;4.55;1.83;;;;;;;8.01;67.51;102236.53;5073265;28;20154;-43
2022/12/06 04:05:22;;;;;;;4.38;1.73;;;;;;;7.89;67.01;102235.97;5073058;28;20465;-49
2022/12/06 04:07:48;;;;;;;3.63;1.70;;;;;;;7.89;67.36;102230.78;5072631;28;20024;-42
2022/12/06 04:10:13;;;;;;;4.50;1.58;;;;;;;7.89;66.85;102229.88;5072494;28;20020;-46
2022/12/06 04:15:22;;;;;;;4.10;1.80;;;;;;;7.71;66.61;102238.63;5072610;28;20039;-42
2022/12/06 04:23:02;;;;;;;3.63;1.75;;;;;;;7.62;67.18;102235.56;5072134;28;20114;-44
2022/12/06 04:23:18;;;;;;;2.58;1.60;;;;;;;7.61;67.29;102240.72;5072311;28;20064;-42
2022/12/06 04:25:44;;;;;;;3.90;1.80;;;;;;;7.57;67.63;102239.66;5072468;28;20020;-49
2022/12/06 04:39:05;;;;;;;3.10;1.70;;;;;;;7.31;67.02;102233.25;5072408;28;20531;-43
2022/12/06 04:44:14;;;;;;;8.15;2.15;;;;;;;7.20;67.25;102229.22;5072329;28;20035;-43
2022/12/06 04:46:40;;;;;;;7.57;1.88;;;;;;;7.18;67.47;102232.59;5072295;28;20305;-46
2022/12/06 04:49:05;;;;;;;6.07;2.20;;;;;;;7.03;67.97;102237.00;5072470;28;20103;-45
2022/12/06 04:51:31;;;;;;;7.07;2.15;;;;;;;7.06;67.96;102234.59;5072102;28;20028;-42
2022/12/06 04:53:56;;;;;;;3.38;2.00;;;;;;;7.04;68.25;102231.00;5071938;28;20063;-43
2022/12/06 04:56:22;;;;;;;4.03;2.10;;;;;;;7.09;68.06;102233.00;5071661;28;20048;-44
2022/12/06 04:58:47;;;;;;;4.85;2.10;;;;;;;7.13;68.01;102229.78;5071647;28;20033;-43
2022/12/06 05:01:12;;;;;;;4.35;2.08;;;;;;;7.12;68.05;102229.69;5071407;28;20146;-44
2022/12/06 05:03:38;;;;;;;3.55;2.03;;;;;;;7.13;68.10;102216.81;5071706;28;20209;-49
2022/12/06 05:06:04;;;;;;;3.92;1.90;;;;;;;7.15;68.20;102217.75;5071864;28;20039;-43
2022/12/06 05:08:30;;;;;;;4.70;2.08;;;;;;;7.15;68.10;102220.34;5071497;28;20844;-42
2022/12/06 05:10:55;;;;;;;5.70;2.10;;;;;;;7.21;68.22;102211.97;5071376;28;20021;-43
2022/12/06 05:13:21;;;;;;;4.90;2.00;;;;;;;7.10;68.28;102221.84;5071306;28;20492;-45
2022/12/06 05:15:51;;;;;;;5.63;2.50;;;;;;;6.98;68.68;102221.25;5071818;28;20113;-46
2022/12/06 05:18:17;;;;;;;5.80;2.30;;;;;;;7.01;68.43;102224.00;5071314;28;20055;-46
2022/12/06 05:20:42;;;;;;;4.93;2.42;;;;;;;7.03;68.09;102218.84;5071740;28;20551;-43
2022/12/06 05:23:07;;;;;;;5.35;2.40;;;;;;;7.07;67.94;102213.91;5071881;28;20017;-44
2022/12/06 05:25:32;;;;;;;4.03;2.17;;;;;;;7.04;68.19;102220.66;5071730;28;20103;-43
2022/12/06 05:27:58;;;;;;;6.75;2.40;;;;;;;7.04;68.21;102213.75;5071488;28;20028;-43
2022/12/06 05:30:23;;;;;;;4.93;2.38;;;;;;;7.06;68.80;102219.03;5071372;28;20039;-47
2022/12/06 05:32:48;;;;;;;5.03;2.55;;;;;;;7.16;68.45;102214.34;5071263;28;20099;-43
2022/12/06 05:35:14;;;;;;;6.22;2.90;;;;;;;7.18;68.69;102214.44;5071575;28;20070;-43
2022/12/06 05:37:39;;;;;;;8.20;3.78;;;;;;;7.14;69.06;102218.56;5071122;28;20481;-43
2022/12/06 05:40:05;;;;;;;7.18;4.03;;;;;;;7.06;69.16;102216.44;5070632;28;20032;-45
2022/12/06 05:42:30;;;;;;;7.28;4.20;;;;;;;7.15;69.21;102214.28;5070700;28;20093;-46
2022/12/06 05:44:55;;;;;;;7.68;4.18;;;;;;;7.19;68.97;102224.00;5071314;28;20114;-44
2022/12/06 05:47:21;;;;;;;7.93;4.45;;;;;;;7.21;68.72;102211.97;5070989;28;20024;-43
2022/12/06 05:49:46;;;;;;;8.50;4.38;;;;;;;7.19;68.42;102208.44;5071189;28;20419;-49
2022/12/06 05:52:11;;;;;;;6.80;4.20;;;;;;;7.17;67.90;102212.66;5070528;28;20492;-42
2022/12/06 05:54:37;;;;;;;10.23;4.53;;;;;;;7.14;68.13;102226.34;5070721;28;20036;-44
2022/12/06 05:57:02;;;;;;;8.25;4.13;;;;;;;7.05;68.43;102225.91;5070441;28;20027;-43
2022/12/06 05:59:27;;;;;;;6.80;3.70;;;;;;;7.06;68.44;102226.81;5070521;28;20075;-46
2022/12/06 06:01:53;;;;;;;8.25;3.95;;;;;;;7.08;68.56;102222.56;5070254;28;20074;-47
2022/12/06 06:04:18;;;;;;;7.70;3.90;;;;;;;7.07;69.00;102226.00;5070537;28;20032;-42
2022/12/06 06:06:44;;;;;;;7.80;3.85;;;;;;;7.15;68.93;102222.06;5070627;28;20044;-41
2022/12/06 06:09:09;;;;;;;5.93;3.70;;;;;;;7.13;69.39;102227.19;5070568;28;20035;-44
2022/12/06 06:11:34;;;;;;;7.15;4.07;;;;;;;7.24;69.07;102226.00;5071100;28;20040;-46
2022/12/06 06:14:00;;;;;;;6.97;3.60;;;;;;;7.36;68.77;102225.69;5072570;28;20085;-44
2022/12/06 06:16:25;;;;;;;6.03;3.17;;;;;;;7.42;68.50;102215.59;5071609;28;20107;-42
2022/12/06 06:18:50;;;;;;;7.15;3.40;;;;;;;7.32;68.55;102222.03;5070698;28;20107;-42
2022/12/06 06:21:15;;;;;;;6.20;3.20;;;;;;;7.23;68.48;102224.22;5072116;28;20385;-43
2022/12/06 06:23:41;;;;;;;7.43;3.95;;;;;;;7.16;68.31;102223.84;5072648;28;20024;-44
2022/12/06 06:26:10;;;;;;;8.45;4.28;;;;;;;7.06;68.08;102219.03;5071447;28;20033;-46
2022/12/06 06:28:36;;;;;;;7.38;4.20;;;;;;;7.04;68.30;102216.34;5070395;28;20028;-44
2022/12/06 06:31:03;;;;;;;7.30;3.80;;;;;;;6.96;68.39;102215.06;5052256;28;20024;-45
2022/12/06 06:33:29;;;;;;;5.35;3.10;;;;;;;6.92;68.21;102215.75;5072293;28;20066;-46
2022/12/06 06:35:54;;;;;;;6.15;3.30;;;;;;;6.67;69.12;102215.34;5072046;28;20440;-44
2022/12/06 06:38:19;;;;;;;8.43;3.83;;;;;;;6.22;69.77;102212.16;5071553;28;20040;-44
2022/12/06 06:40:45;;;;;;;9.07;3.88;;;;;;;6.30;70.31;102215.16;5070619;28;20040;-48
2022/12/06 06:43:19;;;;;;;7.30;3.72;;;;;;;6.47;68.87;102214.31;5071922;28;20654;-45
2022/12/06 06:46:13;;;;;;;7.35;3.50;;;;;;;6.47;67.98;102211.72;5071623;28;20506;-45
2022/12/06 06:48:38;;;;;;;8.25;4.50;;;;;;;6.43;67.87;102218.47;5050044;28;20404;-45
2022/12/06 06:51:09;;;;;;;7.90;4.63;;;;;;;6.38;67.83;102212.16;5070852;28;20066;-45
2022/12/06 06:53:36;;;;;;;10.15;4.82;;;;;;;6.31;67.84;102211.75;5070934;28;20038;-43
2022/12/06 06:56:01;;;;;;;7.43;4.43;;;;;;;6.31;67.76;102206.59;5071041;28;20036;-41
2022/12/06 06:58:26;;;;;;;7.82;4.03;;;;;;;6.27;67.96;102200.38;5070529;28;20032;-44
2022/12/06 07:00:56;;;;;;;6.75;4.10;;;;;;;6.26;67.87;102201.16;5070778;28;20025;-45
2022/12/06 07:03:23;;;;;;;9.00;4.15;;;;;;;6.21;68.22;102193.97;5070890;28;20439;-44
2022/12/06 07:05:57;;;;;;;9.10;4.60;;;;;;;6.10;68.12;102191.69;5071378;28;20024;-43
2022/12/06 07:08:23;;;;;;;7.22;3.88;;;;;;;6.07;67.98;102194.16;5070533;28;20024;-43
2022/12/06 07:10:49;;;;;;;5.80;3.60;;;;;;;6.05;67.68;102198.34;5069707;28;20057;-47
2022/12/06 07:13:15;;;;;;;7.85;3.78;;;;;;;6.04;68.01;102204.31;5070304;28;20070;-46
2022/12/06 07:15:41;;;;;;;6.95;3.28;;;;;;;6.04;68.08;102208.59;5070804;28;20308;-44
2022/12/06 07:18:06;;;;;;;7.53;4.15;;;;;;;5.97;68.32;102202.25;5051538;28;20166;-44
2022/12/06 07:20:32;;;;;;;8.95;3.83;;;;;;;5.93;68.05;102201.97;5069377;28;20051;-43
2022/12/06 07:22:57;;;;;;;8.07;4.05;;;;;;;5.89;67.92;102192.28;5069669;28;20039;-43
2022/12/06 07:25:22;;;;;;;8.50;4.90;;;;;;;5.80;68.03;102205.56;5070073;28;20103;-41
2022/12/06 07:27:47;;;;;;;8.68;4.20;;;;;;;5.74;68.05;102197.47;5071166;28;20016;-50
2022/12/06 07:30:13;;;;;;;7.72;4.30;;;;;;;5.72;67.86;102207.78;5072443;28;20445;-42
2022/12/06 07:32:38;;;;;;;9.95;4.53;;;;;;;5.61;68.47;102205.41;5069949;28;20059;-46
2022/12/06 07:35:04;;;;;;;9.10;4.18;;;;;;;5.69;68.09;102205.00;5070453;28;20093;-43
2022/12/06 07:37:29;;;;;;;8.38;4.05;;;;;;;5.68;68.17;102205.81;5071163;28;20025;-43
2022/12/06 07:39:55;;;;;;;7.35;4.00;;;;;;;5.70;67.68;102211.06;5054778;28;20119;-45
2022/12/06 07:45:06;;;;;;;6.70;3.92;;;;;;;5.70;68.28;102213.66;5069347;28;20059;-43
2022/12/06 07:47:37;;;;;;;8.45;4.30;;;;;;;5.67;68.18;102216.09;5069843;28;20175;-45
2022/12/06 07:50:04;;;;;;;8.18;4.43;;;;;;;5.66;68.27;102214.31;5070015;28;20021;-43
2022/12/06 07:52:31;;;;;;;9.75;4.05;;;;;;;5.65;68.15;102215.13;5069508;28;20290;-46
2022/12/06 07:54:56;;;;;;;8.05;4.28;;;;;;;5.68;68.27;102218.75;5069128;28;20035;-44
2022/12/06 07:57:22;;;;;;;7.13;4.13;;;;;;;5.69;68.64;102222.22;5069035;28;20024;-46
2022/12/06 07:59:47;;;;;;;11.65;4.90;;;;;;;5.63;68.30;102227.97;5069051;28;20032;-43
2022/12/06 08:02:18;;;;;;;8.65;4.50;;;;;;;5.67;68.11;102224.72;5068803;28;20150;-42
2022/12/06 08:04:44;;;;;;;10.38;4.47;;;;;;;5.76;68.70;102228.63;5072695;28;20036;-47
2022/12/06 08:07:09;;;;;;;7.65;4.15;;;;;;;5.84;68.80;102228.25;5072858;28;20017;-44
2022/12/06 08:09:34;;;;;;;9.65;4.43;;;;;;;5.91;68.81;102224.31;5073009;28;20031;-43
2022/12/06 08:12:00;;;;;;;7.88;4.72;;;;;;;5.89;69.21;102226.81;5072730;28;20492;-48
2022/12/06 08:14:26;;;;;;;10.55;4.85;;;;;;;6.02;69.24;102218.91;5054753;28;20161;-43
2022/12/06 08:16:52;;;;;;;10.25;4.35;;;;;;;6.10;69.55;102219.28;5072368;28;20111;-44
2022/12/06 08:19:17;;;;;;;7.18;4.20;;;;;;;6.29;69.85;102227.22;5072856;28;20111;-47
2022/12/06 08:21:42;;;;;;;10.98;4.93;;;;;;;6.51;70.19;102221.44;5072434;28;20385;-48
2022/12/06 08:24:08;;;;;;;13.10;4.50;;;;;;;6.71;70.44;102225.91;5072637;28;20032;-42
2022/12/06 08:26:34;;;;;;;9.02;4.13;;;;;;;6.93;70.01;102227.91;5072335;28;20107;-44
2022/12/06 08:29:00;;;;;;;10.10;4.28;;;;;;;7.09;70.07;102230.44;5072331;28;20056;-42
2022/12/06 08:31:26;;;;;;;9.80;4.57;;;;;;;7.11;69.21;102225.31;5072080;28;20511;-42
2022/12/06 08:33:51;;;;;;;9.13;4.68;;;;;;;7.19;69.30;102221.41;5072446;28;20104;-49
2022/12/06 08:36:19;;;;;;;10.48;5.00;;;;;;;7.03;68.10;102222.34;5072456;28;20504;-45
2022/12/06 08:38:44;;;;;;;10.95;5.45;;;;;;;7.20;68.59;102229.22;5072433;28;20123;-43
2022/12/06 08:43:56;;;;;;;10.35;5.47;;;;;;;7.77;68.95;102225.03;5074302;28;20175;-44
2022/12/06 08:46:22;;;;;;;10.63;4.90;;;;;;;7.90;68.26;102217.00;5072438;28;20024;-44
2022/12/06 08:48:47;;;;;;;14.15;4.82;;;;;;;8.05;68.14;102230.66;5072422;28;20590;-45
2022/12/06 08:51:12;;;;;;;13.07;4.78;;;;;;;8.28;67.75;102221.31;5071982;28;20126;-44
2022/12/06 08:53:38;;;;;;;9.75;4.63;;;;;;;8.28;67.13;102217.81;5072248;28;20488;-44
2022/12/06 08:56:03;;;;;;;8.60;4.82;;;;;;;8.25;66.70;102226.34;5072655;28;20499;-41
2022/12/06 08:58:29;;;;;;;12.63;4.68;;;;;;;8.40;67.12;102219.28;5072159;28;20032;-45
2022/12/06 09:00:55;;;;;;;8.45;4.53;;;;;;;8.46;67.26;102214.34;5071694;28;20020;-47
2022/12/06 09:03:20;;;;;;;10.40;4.50;;;;;;;8.59;67.40;102212.28;5072023;28;20123;-42
2022/12/06 09:05:45;;;;;;;9.18;4.45;;;;;;;8.66;67.31;102215.16;5072003;28;20020;-44
2022/12/06 09:08:11;;;;;;;10.23;4.88;;;;;;;8.58;66.80;102223.47;5071972;28;20023;-48
2022/12/06 09:10:36;;;;;;;9.93;5.00;;;;;;;8.72;66.76;102222.38;5071572;28;20103;-45
2022/12/06 09:13:01;;;;;;;9.18;4.68;;;;;;;8.66;67.34;102220.38;5071663;28;20028;-44
2022/12/06 09:15:27;;;;;;;8.80;4.88;;;;;;;8.71;67.17;102218.00;5071371;28;20044;-47
2022/12/06 09:17:52;;;;;;;9.38;5.07;;;;;;;8.90;66.94;102218.78;5077531;22;20124;-41
2022/12/06 09:20:17;;;;;;;10.35;5.60;;;;;;;9.02;66.92;102225.34;5051041;28;20029;-39
2022/12/06 09:22:43;;;;;;;7.88;4.55;;;;;;;8.68;67.01;102218.72;5051085;28;20036;-44
2022/12/06 09:25:09;;;;;;;9.35;4.65;;;;;;;9.02;66.55;102228.84;5051230;28;20457;-45
2022/12/06 09:27:35;;;;;;;8.55;4.65;;;;;;;9.11;66.28;102218.78;5051134;28;20040;-42
2022/12/06 09:30:00;;;;;;;8.00;4.30;;;;;;;9.17;66.35;102212.94;5049720;28;20021;-45
2022/12/06 09:32:25;;;;;;;9.82;4.50;;;;;;;9.17;65.91;102218.16;5050806;28;20039;-39
2022/12/06 09:34:51;;;;;;;8.77;5.60;;;;;;;9.21;66.30;102220.06;5051066;28;20024;-42
2022/12/06 09:37:16;;;;;;;10.48;4.53;;;;;;;9.22;65.65;102212.31;5050730;28;20100;-45
2022/12/06 09:39:50;;;;;;;10.52;4.30;;;;;;;9.27;65.79;102223.78;5051024;28;20060;-42
2022/12/06 09:42:36;;;;;;;7.95;4.05;;;;;;;9.43;65.26;102214.00;5049455;28;20021;-42
2022/12/06 09:45:30;;;;;;;6.65;3.72;;;;;;;9.56;64.57;102221.47;5051537;28;20050;-42
2022/12/06 09:48:19;;;;;;;6.75;3.65;;;;;;;9.68;64.42;102227.16;5051051;28;20021;-44
2022/12/06 09:50:52;;;;;;;10.52;3.85;;;;;;;9.79;64.06;102233.63;5050883;28;20071;-43
2022/12/06 09:53:50;;;;;;;11.50;3.60;;;;;;;9.85;63.74;102225.16;5049930;28;20067;-41
2022/12/06 09:56:24;;;;;;;10.07;3.50;;;;;;;9.94;63.13;102225.53;5051807;28;20025;-42
2022/12/06 09:59:02;;;;;;;;;;;;;;;9.98;62.27;102228.31;5051531;28;20017;-43
2022/12/06 10:01:36;;;;;;;7.43;3.67;;;;;;;10.10;61.82;102226.16;5050661;28;20393;-43
2022/12/06 10:04:20;;;;;;;7.35;3.45;;;;;;;10.18;61.53;102223.88;5050688;28;20036;-40
2022/12/06 10:07:01;;;;;;;7.78;3.72;;;;;;;10.18;62.68;102231.69;5049240;28;20028;-43
2022/12/06 10:10:02;;;;;;;8.60;3.40;;;;;;;9.90;62.89;102224.50;5050476;28;20496;-41
2022/12/06 10:12:27;;;;;;;8.55;3.50;;;;;;;9.67;64.88;102222.75;5050331;28;20021;-44
2022/12/06 10:15:14;;;;;;;9.35;3.70;;;;;;;9.91;64.63;102221.06;5052283;28;20025;-42
2022/12/06 10:18:01;;;;;;;8.85;4.00;;;;;;;9.94;63.05;102213.38;5054405;28;20560;-41
2022/12/06 10:20:38;;;;;;;7.68;3.70;;;;;;;10.14;62.51;102215.00;5052147;28;20103;-41
2022/12/06 10:23:23;;;;;;;9.88;3.60;;;;;;;10.09;61.55;102221.75;5050789;28;20112;-43
2022/12/06 10:26:10;;;;;;;7.65;3.20;;;;;;;10.24;61.31;102211.06;5050266;28;20025;-44
2022/12/06 10:28:43;;;;;;;9.27;3.80;;;;;;;10.18;61.36;102214.28;5049938;28;20025;-43
2022/12/06 10:31:45;;;;;;;7.38;3.78;;;;;;;10.18;60.97;102202.13;5050412;28;20028;-41
2022/12/06 10:34:10;;;;;;;8.68;3.72;;;;;;;10.23;61.16;102205.78;5048851;28;20135;-41
2022/12/06 10:36:51;;;;;;;8.25;3.40;;;;;;;10.44;60.81;102199.59;5050570;28;20056;-41
2022/12/06 10:39:23;;;;;;;9.52;3.13;;;;;;;10.65;60.41;102202.06;5050436;28;20443;-40
2022/12/06 10:42:01;;;;;;;8.73;2.88;;;;;;;10.55;60.15;102198.22;5050267;28;20071;-40
2022/12/06 10:44:31;;;;;;;4.55;2.22;;;;;;;10.34;59.74;102201.81;5050607;28;20032;-41
2022/12/06 10:47:12;;;;;;;6.25;2.50;;;;;;;10.08;60.54;102190.44;5050427;28;20113;-43
2022/12/06 10:49:58;;;;;;;6.50;2.58;;;;;;;10.24;60.11;102192.81;5050465;28;20029;-39
2022/12/06 10:52:41;;;;;;;6.97;2.65;;;;;;;10.25;60.10;102188.44;5049500;28;20104;-42
2022/12/06 10:55:09;;;;;;;8.60;2.70;;;;;;;10.23;59.99;102187.53;5048331;28;20033;-43
2022/12/06 10:58:12;;;;;;;10.27;2.80;;;;;;;10.18;59.44;102180.41;5050062;28;20485;-41
2022/12/06 11:00:53;;;;;;;6.75;3.10;;;;;;;10.17;59.57;102185.59;5049817;28;20040;-43
2022/12/06 11:03:32;;;;;;;6.78;2.97;;;;;;;10.20;59.56;102184.81;5049571;28;20494;-42
2022/12/06 11:06:07;;;;;;;7.15;3.10;;;;;;;10.13;59.82;102186.25;5049820;28;20032;-42
2022/12/06 11:08:48;;;;;;;13.32;3.50;;;;;;;10.09;61.06;102184.38;5049981;28;20037;-41
2022/12/06 11:11:28;;;;;;;10.05;3.38;;;;;;;10.57;59.51;102186.16;5049325;28;20028;-41
2022/12/06 11:13:58;;;;;;;7.53;3.45;;;;;;;10.83;57.96;102175.72;5049777;28;20516;-41
2022/12/06 11:16:36;;;;;;;8.35;3.10;;;;;;;11.02;57.30;102169.38;5049382;28;20021;-41
2022/12/06 11:19:30;;;;;;;9.52;3.28;;;;;;;11.15;57.22;102166.31;5049352;28;20033;-42
2022/12/06 11:22:11;;;;;;;5.95;2.88;;;;;;;11.11;57.42;102165.31;5049038;28;20029;-41
2022/12/06 11:25:01;;;;;;;9.70;3.08;;;;;;;11.06;57.54;102166.88;5049570;28;20064;-43
2022/12/06 11:27:35;;;;;;;8.50;3.65;;;;;;;10.50;59.93;102163.28;5049229;28;20385;-41
2022/12/06 11:30:02;;;;;;;9.53;3.57;;;;;;;10.76;59.70;102158.97;5049436;28;20036;-42
2022/12/06 11:32:27;;;;;;;6.90;3.15;;;;;;;10.78;59.10;102165.13;5049236;28;20055;-39
2022/12/06 11:34:56;;;;;;;10.50;4.07;;;;;;;10.46;59.27;102168.38;5049484;28;20025;-43
2022/12/06 11:37:25;;;;;;;6.72;3.40;;;;;;;10.86;58.63;102157.53;5048818;28;20485;-43
2022/12/06 11:39:55;;;;;;;5.60;2.78;;;;;;;10.70;58.48;102148.31;5052932;28;20040;-42
2022/12/06 11:42:24;;;;;;;8.90;2.70;;;;;;;10.68;58.06;102151.72;5053121;28;20029;-43
2022/12/06 11:44:57;;;;;;;8.80;2.92;;;;;;;10.99;58.27;102144.94;5053172;28;20021;-47
2022/12/06 11:47:23;;;;;;;9.30;2.40;;;;;;;11.16;58.26;102139.38;5053288;28;20029;-41
2022/12/06 11:49:51;;;;;;;7.05;2.65;;;;;;;11.29;57.41;102146.72;5053328;28;20560;-42
2022/12/06 11:52:36;;;;;;;10.07;2.60;;;;;;;11.31;56.95;102138.09;5053194;28;20493;-42
2022/12/06 11:55:06;;;;;;;6.05;2.90;;;;;;;11.38;57.18;102140.06;5053303;28;20397;-42
2022/12/06 11:57:47;;;;;;;6.78;2.70;;;;;;;11.57;56.21;102145.84;5053249;28;20107;-42
2022/12/06 12:00:12;;;;;;;4.75;2.38;;;;;;;11.23;57.49;102138.69;5053030;28;20035;-44
2022/12/06 12:02:39;;;;;;;8.02;2.25;;;;;;;11.59;57.27;102145.03;5052713;28;20021;-41
2022/12/06 12:05:29;;;;;;;7.35;2.40;;;;;;;11.82;56.54;102140.53;5054252;28;20029;-42
2022/12/06 12:08:02;;;;;;;5.15;2.28;;;;;;;11.40;57.91;102140.13;5055944;28;20025;-45
2022/12/06 12:10:37;;;;;;;7.90;2.42;;;;;;;11.63;58.12;102136.47;5055966;28;20021;-43